Time;durP1;ratioP1;P1;durP2;ratioP2;P2;SDS_P1;SDS_P2;PMS_P1;PMS_P2;Temp;Humidity;BMP_temperature;BMP_pressure;BME280_temperature;BME280_humidity;BME280_pressure;Samples;Min_cycle;Max_cycle;Signal;HPM_P1;HPM_P2
2023/06/16 00:01:19;;;;;;;5.40;2.00;;;;;;;20.68;51.64;101956.34;5015568;28;100496;-27
2023/06/16 00:03:49;;;;;;;2.97;1.95;;;;;;;20.61;50.65;101938.59;5016187;28;96779;-27
2023/06/16 00:06:15;;;;;;;3.72;1.88;;;;;;;20.58;50.79;101951.63;5015521;28;99511;-26
2023/06/16 00:08:45;;;;;;;3.55;2.33;;;;;;;20.55;51.80;101948.25;5014376;28;101363;-28
2023/06/16 00:11:15;;;;;;;4.10;2.20;;;;;;;20.46;51.46;101938.03;5016336;28;96655;-27
2023/06/16 00:13:40;;;;;;;5.47;2.65;;;;;;;20.50;50.89;101954.16;5014859;28;96855;-26
2023/06/16 00:16:06;;;;;;;4.35;2.30;;;;;;;20.41;51.73;101946.66;5014549;28;100719;-26
2023/06/16 00:18:31;;;;;;;3.25;2.00;;;;;;;20.37;52.48;101939.69;5015978;28;99289;-28
2023/06/16 00:21:00;;;;;;;3.25;1.95;;;;;;;20.31;52.07;101945.72;5015699;28;96711;-27
2023/06/16 00:23:26;;;;;;;6.75;2.53;;;;;;;20.26;53.23;101942.47;5014525;28;96889;-26
2023/06/16 00:25:52;;;;;;;3.67;2.20;;;;;;;20.21;51.71;101934.59;5015071;28;99211;-26
2023/06/16 00:28:17;;;;;;;5.93;2.25;;;;;;;20.23;52.62;101951.84;5015655;28;97787;-26
2023/06/16 00:30:44;;;;;;;4.07;2.30;;;;;;;20.15;53.13;101954.41;5014496;28;96637;-27
2023/06/16 00:33:10;;;;;;;6.13;1.95;;;;;;;20.09;52.52;101943.91;5014470;28;96923;-27
2023/06/16 00:35:35;;;;;;;4.20;2.20;;;;;;;20.05;53.21;101947.94;5013521;28;100874;-27
2023/06/16 00:38:01;;;;;;;4.72;2.00;;;;;;;19.96;53.41;101946.81;5015566;28;98310;-27
2023/06/16 00:40:26;;;;;;;4.55;2.28;;;;;;;19.91;53.50;101946.34;5015960;28;96438;-26
2023/06/16 00:42:53;;;;;;;5.07;2.67;;;;;;;19.88;54.21;101939.22;5016273;28;96850;-27
2023/06/16 00:45:18;;;;;;;3.88;2.30;;;;;;;19.85;53.90;101933.94;5013940;28;100947;-26
2023/06/16 00:47:44;;;;;;;5.65;2.22;;;;;;;19.82;54.10;101938.84;5015383;28;97328;-27
2023/06/16 00:50:10;;;;;;;3.85;2.08;;;;;;;19.75;53.92;101943.13;5015133;28;96753;-27
2023/06/16 00:52:37;;;;;;;4.25;2.03;;;;;;;19.75;54.40;101943.13;5014041;28;96843;-27
2023/06/16 00:55:03;;;;;;;5.60;2.58;;;;;;;19.70;54.39;101941.63;5013645;28;101244;-27
2023/06/16 00:57:29;;;;;;;4.35;2.33;;;;;;;19.69;53.94;101937.13;5015129;28;99568;-27
2023/06/16 00:59:55;;;;;;;3.20;2.28;;;;;;;19.63;54.14;101934.84;5015485;28;96502;-26
2023/06/16 01:02:20;;;;;;;3.50;2.50;;;;;;;19.58;54.51;101928.00;5015106;28;96856;-27
2023/06/16 01:04:48;;;;;;;2.38;1.67;;;;;;;19.62;54.38;101935.00;5014916;28;97514;-27
2023/06/16 01:08:02;;;;;;;3.35;1.80;;;;;;;19.64;55.59;101941.22;5014920;28;97951;-27
2023/06/16 01:10:32;;;;;;;4.80;2.20;;;;;;;19.63;54.72;101933.97;5011778;28;96869;-27
2023/06/16 01:13:06;;;;;;;3.25;2.00;;;;;;;19.57;54.70;101943.63;5013848;28;96741;-27
2023/06/16 01:15:32;;;;;;;3.90;2.22;;;;;;;19.57;54.19;101937.22;5013077;28;100872;-28
2023/06/16 01:18:00;;;;;;;3.75;2.22;;;;;;;19.47;55.05;101929.75;5015078;28;97730;-26
2023/06/16 01:20:53;;;;;;;3.38;2.08;;;;;;;19.47;55.07;101937.09;5015128;28;96468;-27
2023/06/16 01:23:37;;;;;;;4.28;2.20;;;;;;;19.40;56.22;101925.75;5013826;28;96810;-27
2023/06/16 01:26:06;;;;;;;5.22;2.22;;;;;;;19.35;54.89;101929.88;5014987;28;97856;-27
2023/06/16 01:28:34;;;;;;;4.05;2.35;;;;;;;19.35;54.44;101925.25;5013111;28;101431;-27
2023/06/16 01:31:01;;;;;;;5.57;2.00;;;;;;;19.37;55.10;101930.63;5013548;28;96610;-28
2023/06/16 01:33:30;;;;;;;4.95;2.30;;;;;;;19.34;55.61;101925.38;5013928;28;96867;-27
2023/06/16 01:35:56;;;;;;;5.15;1.95;;;;;;;19.34;55.67;101929.00;5012756;28;100994;-27
2023/06/16 01:38:23;;;;;;;5.63;2.50;;;;;;;19.28;54.72;101926.72;5014780;28;97346;-28
2023/06/16 01:40:54;;;;;;;4.75;2.05;;;;;;;19.27;55.42;101936.00;5012960;28;96740;-27
2023/06/16 01:43:20;;;;;;;5.40;2.40;;;;;;;19.22;55.73;101928.13;5013464;28;96825;-27
2023/06/16 01:45:49;;;;;;;4.40;2.30;;;;;;;19.15;55.52;101926.00;5013087;28;101354;-27
2023/06/16 01:48:15;;;;;;;3.60;2.10;;;;;;;19.12;55.70;101921.63;5012876;28;101194;-27
2023/06/16 01:50:42;;;;;;;3.45;2.13;;;;;;;19.09;55.50;101924.59;5013167;28;96570;-27
2023/06/16 01:53:07;;;;;;;4.10;2.53;;;;;;;19.08;55.20;101922.88;5013430;28;96633;-27
2023/06/16 01:55:32;;;;;;;2.85;1.83;;;;;;;19.05;55.54;101925.88;5014249;28;106966;-26
2023/06/16 01:57:58;;;;;;;4.78;2.63;;;;;;;18.97;56.60;101911.84;5014123;28;117106;-29
2023/06/16 02:00:43;;;;;;;2.75;1.80;;;;;;;18.99;56.78;101920.84;5014832;28;96575;-26
2023/06/16 02:03:19;;;;;;;3.22;2.03;;;;;;;18.97;56.33;101923.72;5014654;28;96643;-27
2023/06/16 02:05:49;;;;;;;6.80;2.10;;;;;;;18.92;56.25;101925.09;5012485;28;101633;-27
2023/06/16 02:08:16;;;;;;;4.10;2.17;;;;;;;18.85;56.12;101913.72;5012921;28;100773;-26
2023/06/16 02:10:42;;;;;;;3.30;2.00;;;;;;;18.87;55.69;101923.56;5013032;28;96669;-26
2023/06/16 02:13:07;;;;;;;3.47;1.95;;;;;;;18.87;55.79;101922.72;5012996;28;97654;-27
2023/06/16 02:15:33;;;;;;;3.42;1.92;;;;;;;18.83;56.22;101924.84;5014162;28;98050;-27
2023/06/16 02:17:58;;;;;;;4.30;2.08;;;;;;;18.78;56.28;101917.94;5014117;28;98416;-27
2023/06/16 02:20:26;;;;;;;4.50;1.83;;;;;;;18.76;55.97;101918.09;5017373;28;96604;-27
2023/06/16 02:22:53;;;;;;;2.67;1.63;;;;;;;18.82;56.46;101920.31;5018537;28;96946;-26
2023/06/16 02:25:18;;;;;;;2.58;1.63;;;;;;;18.78;55.88;101918.84;5016192;28;100685;-27
2023/06/16 02:27:44;;;;;;;2.80;1.77;;;;;;;18.76;55.93;101919.91;5017421;28;97636;-26
2023/06/16 02:30:11;;;;;;;3.50;1.65;;;;;;;18.71;55.97;101919.38;5017104;28;96606;-27
2023/06/16 02:32:37;;;;;;;5.25;2.10;;;;;;;18.70;56.19;101920.41;5016344;28;96834;-26
2023/06/16 02:35:04;;;;;;;2.65;1.80;;;;;;;18.73;56.00;101925.63;5015188;28;101403;-27
2023/06/16 02:37:29;;;;;;;3.75;1.98;;;;;;;18.64;55.89;101924.50;5015809;28;102455;-26
2023/06/16 02:39:55;;;;;;;4.55;1.88;;;;;;;18.63;55.94;101923.63;5016266;28;96527;-26
2023/06/16 02:42:20;;;;;;;5.05;1.80;;;;;;;18.60;55.89;101921.13;5016069;28;96860;-27
2023/06/16 02:44:46;;;;;;;4.82;2.10;;;;;;;18.61;55.57;101933.84;5016910;28;98872;-26
2023/06/16 02:47:11;;;;;;;4.25;1.75;;;;;;;18.57;56.12;101921.38;5017655;28;97788;-27
2023/06/16 02:49:42;;;;;;;2.67;1.80;;;;;;;18.59;55.97;101924.88;5017375;28;96604;-27
2023/06/16 02:52:09;;;;;;;2.97;2.00;;;;;;;18.58;55.55;101925.84;5017516;28;96680;-27
2023/06/16 02:54:34;;;;;;;3.47;1.90;;;;;;;18.58;55.79;101933.22;5015099;28;100947;-27
2023/06/16 02:57:00;;;;;;;4.22;2.13;;;;;;;18.58;56.15;101933.22;5015746;28;99229;-27
2023/06/16 02:59:25;;;;;;;5.88;1.65;;;;;;;18.56;54.99;101926.97;5017146;28;98325;-26
2023/06/16 03:01:51;;;;;;;3.08;1.70;;;;;;;18.57;55.89;101929.59;5017190;28;96889;-27
2023/06/16 03:04:17;;;;;;;4.18;1.90;;;;;;;18.60;55.45;101934.84;5017196;28;97970;-28
2023/06/16 03:06:44;;;;;;;2.00;1.42;;;;;;;18.54;55.49;101923.47;5017139;28;98432;-27
2023/06/16 03:09:11;;;;;;;2.85;1.70;;;;;;;18.55;55.62;101927.97;5017023;28;96486;-26
2023/06/16 03:11:37;;;;;;;2.38;1.63;;;;;;;18.50;55.26;101930.22;5016025;28;96915;-27
2023/06/16 03:14:02;;;;;;;3.20;1.73;;;;;;;18.49;54.58;101937.53;5016549;28;100072;-27
2023/06/16 03:16:27;;;;;;;4.75;1.67;;;;;;;18.50;54.80;101938.44;5016457;28;101480;-29
2023/06/16 03:18:56;;;;;;;3.47;1.50;;;;;;;18.51;54.77;101945.66;5016382;28;96471;-27
2023/06/16 03:21:22;;;;;;;3.45;1.70;;;;;;;18.45;53.88;101931.44;5015490;28;96835;-27
2023/06/16 03:23:48;;;;;;;4.43;2.03;;;;;;;18.44;54.38;101943.38;5015332;28;99049;-27
2023/06/16 03:26:13;;;;;;;3.42;1.85;;;;;;;18.48;54.07;101943.16;5014879;28;100756;-26
2023/06/16 03:28:40;;;;;;;3.80;1.88;;;;;;;18.42;54.51;101942.66;5016749;28;96578;-27
2023/06/16 03:31:05;;;;;;;2.92;1.80;;;;;;;18.42;54.04;101937.16;5016064;28;96924;-26
2023/06/16 03:33:31;;;;;;;3.15;1.67;;;;;;;18.40;53.90;101939.16;5016470;28;99293;-28
2023/06/16 03:35:57;;;;;;;2.58;1.67;;;;;;;18.41;54.06;101949.13;5016396;28;99309;-26
2023/06/16 03:38:22;;;;;;;5.20;1.70;;;;;;;18.41;54.11;101946.38;5016867;28;96580;-27
2023/06/16 03:40:47;;;;;;;3.30;1.98;;;;;;;18.33;54.42;101939.72;5016606;28;96828;-27
2023/06/16 03:43:13;;;;;;;4.57;2.25;;;;;;;18.34;54.40;101941.47;5015370;28;112075;-27
2023/06/16 03:45:38;;;;;;;3.72;1.90;;;;;;;18.36;54.53;101943.13;5016328;28;97754;-27
2023/06/16 03:48:04;;;;;;;3.45;2.05;;;;;;;18.38;53.83;101952.09;5016526;28;96604;-27
2023/06/16 03:50:29;;;;;;;2.88;1.90;;;;;;;18.36;54.20;101958.72;5016347;28;96924;-26
2023/06/16 03:52:55;;;;;;;3.38;2.10;;;;;;;18.34;53.48;101956.06;5016121;28;99289;-28
2023/06/16 03:55:21;;;;;;;3.50;2.10;;;;;;;18.35;54.23;101962.41;5014625;28;100101;-27
2023/06/16 03:57:46;;;;;;;5.57;1.77;;;;;;;18.30;54.44;101943.56;5016336;28;96611;-27
2023/06/16 04:00:12;;;;;;;5.57;2.05;;;;;;;18.30;54.20;101954.53;5016860;28;96514;-26
2023/06/16 04:02:38;;;;;;;3.00;1.98;;;;;;;18.30;54.21;101951.81;5016095;28;97893;-28
2023/06/16 04:05:03;;;;;;;6.38;1.92;;;;;;;18.25;53.44;101948.53;5016182;28;97768;-26
2023/06/16 04:07:30;;;;;;;3.47;1.90;;;;;;;18.25;53.74;101949.41;5015656;28;96525;-27
2023/06/16 04:09:56;;;;;;;3.35;2.13;;;;;;;18.27;54.12;101953.91;5014535;28;96884;-26
2023/06/16 04:12:21;;;;;;;3.03;1.85;;;;;;;18.29;54.17;101954.69;4997853;28;100776;-27
2023/06/16 04:14:47;;;;;;;4.00;1.83;;;;;;;18.24;53.94;101955.03;5015938;28;97876;-26
2023/06/16 04:17:12;;;;;;;4.60;1.88;;;;;;;18.27;54.20;101956.66;5016361;28;96692;-29
2023/06/16 04:19:37;;;;;;;4.65;2.10;;;;;;;18.28;54.48;101967.50;5015725;28;98007;-27
2023/06/16 04:22:03;;;;;;;3.55;1.77;;;;;;;18.28;54.20;101958.41;5015753;28;97922;-27
2023/06/16 04:24:28;;;;;;;4.90;2.00;;;;;;;18.29;54.31;101957.44;5015955;28;100210;-27
2023/06/16 04:26:58;;;;;;;4.22;1.88;;;;;;;18.31;53.84;101963.69;5015378;28;100705;-27
2023/06/16 04:29:25;;;;;;;3.15;1.88;;;;;;;18.24;54.12;101963.25;5014483;28;96891;-26
2023/06/16 04:31:51;;;;;;;2.50;1.45;;;;;;;18.24;53.84;101958.66;5013550;28;101348;-26
2023/06/16 04:34:17;;;;;;;3.40;1.83;;;;;;;18.27;53.90;101953.91;5014970;28;99373;-27
2023/06/16 04:36:44;;;;;;;5.38;2.00;;;;;;;18.24;53.65;101957.78;5014601;28;96636;-27
2023/06/16 04:39:11;;;;;;;3.33;2.00;;;;;;;18.24;53.61;101966.88;5014229;28;96831;-27
2023/06/16 04:41:37;;;;;;;4.22;2.17;;;;;;;18.28;53.79;101961.16;5013807;28;99984;-26
2023/06/16 04:44:03;;;;;;;4.82;1.55;;;;;;;18.30;53.39;101956.41;5012777;28;100651;-27
2023/06/16 04:46:29;;;;;;;3.13;1.65;;;;;;;18.29;53.75;101963.78;5015491;28;96641;-27
2023/06/16 04:48:54;;;;;;;4.72;1.60;;;;;;;18.33;53.46;101962.56;5015902;28;96779;-28
2023/06/16 04:51:20;;;;;;;3.22;1.95;;;;;;;18.40;53.55;101969.31;5015364;28;97498;-27
2023/06/16 04:53:45;;;;;;;3.33;1.77;;;;;;;18.39;53.13;101969.44;5015086;28;97818;-27
2023/06/16 04:56:11;;;;;;;2.60;1.80;;;;;;;18.34;53.06;101957.94;5015261;28;96584;-28
2023/06/16 04:58:36;;;;;;;3.17;2.00;;;;;;;18.39;53.22;101967.56;5015422;28;96901;-27
2023/06/16 05:01:02;;;;;;;2.53;1.70;;;;;;;18.40;53.33;101958.34;5013604;28;99242;-27
2023/06/16 05:03:27;;;;;;;5.10;1.85;;;;;;;18.46;52.76;101970.72;5015325;28;97771;-27
2023/06/16 05:05:52;;;;;;;3.33;1.92;;;;;;;18.50;53.08;101963.13;5015617;28;96511;-27
2023/06/16 05:08:18;;;;;;;3.72;1.83;;;;;;;18.53;52.73;101969.25;5015012;28;96690;-26
2023/06/16 05:10:43;;;;;;;4.47;2.20;;;;;;;18.52;52.72;101962.03;5015085;28;98563;-28
2023/06/16 05:13:09;;;;;;;2.25;1.38;;;;;;;18.59;52.53;101971.53;5015169;28;99376;-26
2023/06/16 05:15:34;;;;;;;2.60;1.73;;;;;;;18.61;52.36;101961.28;5014896;28;96639;-26
2023/06/16 05:17:59;;;;;;;6.63;1.83;;;;;;;18.71;52.10;101975.19;5015142;28;96770;-26
2023/06/16 05:20:25;;;;;;;4.45;1.77;;;;;;;18.73;52.47;101969.56;5014019;28;98353;-26
2023/06/16 05:22:50;;;;;;;3.80;2.03;;;;;;;18.79;51.55;101974.63;5014721;28;97296;-26
2023/06/16 05:25:15;;;;;;;6.25;2.13;;;;;;;18.81;52.10;101967.13;5015154;28;96626;-26
2023/06/16 05:27:41;;;;;;;6.45;2.17;;;;;;;18.83;52.14;101970.59;5014665;28;96774;-26
2023/06/16 05:30:06;;;;;;;3.72;2.00;;;;;;;18.83;51.92;101966.03;5014732;28;98028;-27
2023/06/16 05:32:33;;;;;;;4.07;2.13;;;;;;;18.95;52.07;101977.91;5013206;28;100423;-27
2023/06/16 05:34:58;;;;;;;4.38;2.10;;;;;;;18.98;51.84;101974.91;5013097;28;96872;-26
2023/06/16 05:37:24;;;;;;;4.60;2.22;;;;;;;19.03;51.74;101975.41;5015495;28;96765;-26
2023/06/16 05:39:50;;;;;;;4.82;2.22;;;;;;;19.10;51.45;101973.06;5014096;28;110210;-27
2023/06/16 05:42:16;;;;;;;7.72;2.60;;;;;;;19.10;51.44;101965.69;5010858;28;101352;-28
2023/06/16 05:44:42;;;;;;;5.68;2.25;;;;;;;19.17;51.06;101967.97;5010321;28;97191;-27
2023/06/16 05:47:08;;;;;;;4.53;1.98;;;;;;;19.25;51.16;101969.06;5010750;28;96782;-32
2023/06/16 05:49:33;;;;;;;2.67;1.85;;;;;;;19.32;50.79;101961.22;5010413;28;101221;-27
2023/06/16 05:52:01;;;;;;;3.53;2.10;;;;;;;19.39;50.88;101967.97;5012443;28;97843;-28
2023/06/16 05:54:27;;;;;;;4.38;2.08;;;;;;;19.52;50.91;101976.97;5012295;28;97100;-27
2023/06/16 05:56:52;;;;;;;4.00;1.98;;;;;;;19.56;50.79;101963.84;5014010;28;96804;-26
2023/06/16 05:59:18;;;;;;;5.47;2.28;;;;;;;19.62;50.47;101970.72;5013977;28;109064;-26
2023/06/16 06:01:43;;;;;;;3.97;1.83;;;;;;;19.76;50.48;101970.50;5014715;28;97797;-26
2023/06/16 06:04:11;;;;;;;6.68;2.28;;;;;;;19.86;50.17;101970.59;5014370;28;96509;-27
2023/06/16 06:06:38;;;;;;;4.82;1.98;;;;;;;20.01;49.75;101984.94;5013123;28;96829;-27
2023/06/16 06:09:03;;;;;;;5.40;2.10;;;;;;;20.06;50.23;101975.28;5013735;28;98226;-27
2023/06/16 06:11:29;;;;;;;4.93;2.20;;;;;;;20.02;50.15;101986.69;5014236;28;97188;-28
2023/06/16 06:13:55;;;;;;;3.05;1.80;;;;;;;20.06;50.25;101989.03;5014598;28;96711;-28
2023/06/16 06:16:21;;;;;;;3.83;2.22;;;;;;;20.11;49.77;101975.78;5014296;28;96860;-27
2023/06/16 06:18:48;;;;;;;3.92;1.95;;;;;;;20.27;49.20;101983.63;5013999;28;99814;-27
2023/06/16 06:21:13;;;;;;;3.53;2.15;;;;;;;20.36;49.28;101982.84;5012507;28;101485;-28
2023/06/16 06:23:39;;;;;;;3.25;1.85;;;;;;;20.57;48.80;101987.56;5014479;28;96517;-27
2023/06/16 06:26:04;;;;;;;7.47;2.50;;;;;;;20.67;48.80;101982.13;5014547;28;96831;-27
2023/06/16 06:28:30;;;;;;;3.30;1.83;;;;;;;20.68;48.68;101981.13;5013670;28;99113;-27
2023/06/16 06:30:55;;;;;;;7.10;2.22;;;;;;;20.82;48.55;101985.44;5013897;28;97782;-27
2023/06/16 06:33:20;;;;;;;4.78;1.88;;;;;;;20.86;48.67;101982.28;5013815;28;96483;-26
2023/06/16 06:35:46;;;;;;;3.58;1.58;;;;;;;20.90;48.48;101978.22;5013793;28;96861;-28
2023/06/16 06:38:11;;;;;;;3.55;1.75;;;;;;;21.12;48.78;101979.13;5013771;28;97646;-27
2023/06/16 06:40:36;;;;;;;4.32;1.85;;;;;;;21.31;48.36;101995.78;5013878;28;97752;-27
2023/06/16 06:43:02;;;;;;;5.40;1.92;;;;;;;21.41;47.76;101990.34;5014045;28;96519;-27
2023/06/16 06:45:27;;;;;;;2.88;1.83;;;;;;;21.53;47.89;101996.63;5014275;28;96787;-27
2023/06/16 06:47:52;;;;;;;3.30;1.88;;;;;;;21.46;47.92;101995.44;5013836;28;97459;-26
2023/06/16 06:50:18;;;;;;;2.88;1.88;;;;;;;21.46;47.65;101996.31;5013983;28;104466;-26
2023/06/16 06:52:43;;;;;;;5.22;1.70;;;;;;;21.61;47.44;102003.19;5013476;28;97469;-27
2023/06/16 06:55:09;;;;;;;3.28;1.90;;;;;;;21.80;47.94;101999.63;5013935;28;96949;-28
2023/06/16 06:57:34;;;;;;;4.78;2.00;;;;;;;21.96;47.72;102003.75;5013120;28;99550;-29
2023/06/16 06:59:59;;;;;;;4.57;2.13;;;;;;;22.08;47.70;102001.75;5013437;28;99121;-27
2023/06/16 07:02:25;;;;;;;3.38;1.85;;;;;;;22.13;47.49;102002.22;5013888;28;96460;-27
2023/06/16 07:04:50;;;;;;;5.07;2.30;;;;;;;22.24;47.65;102003.00;5011829;28;104907;-27
2023/06/16 07:07:15;;;;;;;4.97;1.85;;;;;;;22.38;47.32;102009.09;5015815;28;97905;-27
2023/06/16 07:09:41;;;;;;;5.47;2.35;;;;;;;22.46;46.65;102010.13;5016847;28;97285;-26
2023/06/16 07:12:07;;;;;;;4.72;2.10;;;;;;;22.54;47.15;102009.41;5016960;28;96612;-27
2023/06/16 07:14:34;;;;;;;4.68;2.30;;;;;;;22.67;46.45;102004.50;5015955;28;96845;-27
2023/06/16 07:17:01;;;;;;;3.92;2.03;;;;;;;22.64;46.37;101999.25;5016543;28;99387;-27
2023/06/16 07:19:26;;;;;;;4.63;2.00;;;;;;;22.68;45.87;102008.97;5016730;28;97888;-27
2023/06/16 07:21:56;;;;;;;4.68;2.05;;;;;;;22.79;45.51;102007.09;5016547;28;96502;-27
2023/06/16 07:24:22;;;;;;;3.83;1.88;;;;;;;22.94;45.72;102013.91;5015623;28;96948;-27
2023/06/16 07:26:48;;;;;;;2.25;1.40;;;;;;;23.03;45.26;102009.44;5016091;28;99848;-26
2023/06/16 07:29:13;;;;;;;3.35;1.67;;;;;;;23.07;44.39;102002.56;5016366;28;99229;-27
2023/06/16 07:31:38;;;;;;;5.15;2.20;;;;;;;23.21;44.58;102004.88;5016915;28;96497;-27
2023/06/16 07:34:04;;;;;;;5.15;1.80;;;;;;;23.36;44.47;102008.06;5016024;28;96880;-27
2023/06/16 07:36:31;;;;;;;4.03;1.67;;;;;;;23.51;44.18;102011.22;5016656;28;97884;-29
2023/06/16 07:38:56;;;;;;;4.45;1.80;;;;;;;23.60;44.49;102004.78;5015225;28;100925;-27
2023/06/16 07:41:21;;;;;;;4.57;2.17;;;;;;;23.76;44.21;102003.28;5017109;28;96521;-27
2023/06/16 07:43:48;;;;;;;3.28;1.95;;;;;;;23.93;43.97;102010.75;5016097;28;100245;-26
2023/06/16 07:46:14;;;;;;;3.40;1.95;;;;;;;24.04;43.85;102006.91;5014264;28;101421;-27
2023/06/16 07:48:39;;;;;;;3.28;1.85;;;;;;;24.18;43.62;101998.09;5015107;28;97644;-26
2023/06/16 07:51:04;;;;;;;2.85;1.63;;;;;;;24.19;43.41;102015.56;5016392;28;96733;-27
2023/06/16 07:53:31;;;;;;;4.20;1.92;;;;;;;24.23;43.61;102011.47;5016365;28;96840;-27
2023/06/16 07:55:56;;;;;;;8.90;2.10;;;;;;;24.40;43.60;102012.53;5016160;28;97947;-27
2023/06/16 07:58:22;;;;;;;2.75;1.75;;;;;;;24.53;43.32;102013.06;5015914;28;99146;-27
2023/06/16 08:00:51;;;;;;;4.90;1.85;;;;;;;24.50;42.56;102005.94;5016295;28;96579;-27
2023/06/16 08:03:18;;;;;;;3.28;2.10;;;;;;;24.58;43.26;102008.78;5015259;28;96808;-27
2023/06/16 08:05:43;;;;;;;5.03;1.70;;;;;;;24.79;42.68;102004.81;5015862;28;97361;-27
2023/06/16 08:08:08;;;;;;;4.72;2.38;;;;;;;24.88;42.63;101998.28;5013948;28;112790;-27
2023/06/16 08:10:34;;;;;;;2.78;1.70;;;;;;;25.01;42.40;102011.75;5015779;28;96574;-27
2023/06/16 08:13:00;;;;;;;4.63;2.00;;;;;;;24.89;42.07;102004.72;5016089;28;96855;-27
2023/06/16 08:15:25;;;;;;;3.40;1.83;;;;;;;25.06;41.93;102000.19;5014284;28;100981;-27
2023/06/16 08:17:51;;;;;;;3.15;1.67;;;;;;;25.13;41.32;102002.13;5015701;28;97753;-27
2023/06/16 08:20:16;;;;;;;3.55;2.03;;;;;;;25.21;41.11;101996.66;5016048;28;96532;-27
2023/06/16 08:22:41;;;;;;;2.55;1.67;;;;;;;25.21;41.22;101998.56;5016180;28;96753;-27
2023/06/16 08:25:07;;;;;;;2.92;1.90;;;;;;;25.11;41.03;101995.00;5015788;28;98045;-27
2023/06/16 08:27:32;;;;;;;3.60;1.80;;;;;;;25.37;40.78;101995.91;5015877;28;97847;-27
2023/06/16 08:29:58;;;;;;;3.00;1.67;;;;;;;25.62;40.38;102007.16;5014594;28;96844;-27
2023/06/16 08:32:23;;;;;;;3.25;1.70;;;;;;;25.70;40.02;102004.44;5013963;28;96806;-27
2023/06/16 08:34:48;;;;;;;2.58;1.55;;;;;;;25.69;39.17;102002.69;5013341;28;119703;-27
2023/06/16 08:37:14;;;;;;;3.53;1.77;;;;;;;25.84;39.82;101992.69;5015035;28;111582;-27
2023/06/16 08:39:42;;;;;;;6.75;2.10;;;;;;;25.84;39.07;102003.81;5015582;28;96859;-27
2023/06/16 08:42:09;;;;;;;3.38;1.75;;;;;;;25.90;38.31;101998.66;5014303;28;96916;-27
2023/06/16 08:44:35;;;;;;;2.60;1.80;;;;;;;26.06;38.51;101999.59;5014066;28;99334;-28
2023/06/16 08:47:03;;;;;;;3.90;1.80;;;;;;;26.02;38.94;101997.31;5013643;28;101011;-27
2023/06/16 08:49:28;;;;;;;6.65;1.73;;;;;;;26.09;38.08;101987.25;5015621;28;96413;-26
2023/06/16 08:51:55;;;;;;;3.00;1.90;;;;;;;26.32;38.13;101984.72;5015887;28;96858;-27
2023/06/16 08:54:24;;;;;;;4.22;2.10;;;;;;;26.47;37.96;101990.47;5015173;28;99459;-27
2023/06/16 08:56:51;;;;;;;4.85;1.90;;;;;;;26.63;37.62;101989.69;5013820;28;101466;-27
2023/06/16 08:59:18;;;;;;;3.10;1.85;;;;;;;26.68;37.73;101998.38;5013559;28;96672;-27
2023/06/16 09:01:46;;;;;;;2.95;1.92;;;;;;;26.69;37.01;101989.81;5013772;28;96855;-27
2023/06/16 09:04:13;;;;;;;3.17;1.75;;;;;;;26.74;37.91;101994.00;5015172;28;97393;-26
2023/06/16 09:06:47;;;;;;;2.83;1.75;;;;;;;26.92;37.02;101991.94;5013543;28;100817;-26
2023/06/16 09:09:14;;;;;;;3.88;1.98;;;;;;;27.08;36.76;101994.72;5013932;28;96632;-27
2023/06/16 09:11:39;;;;;;;3.05;1.70;;;;;;;27.25;36.14;101994.72;5013892;28;96754;-29
2023/06/16 09:14:13;;;;;;;2.97;2.03;;;;;;;27.20;33.91;101991.59;5014984;28;97957;-27
2023/06/16 09:16:42;;;;;;;2.85;1.50;;;;;;;27.17;36.08;101995.53;5013709;28;101177;-28
2023/06/16 09:19:10;;;;;;;2.85;1.60;;;;;;;27.31;34.19;101992.06;5015092;28;96601;-27
2023/06/16 09:21:37;;;;;;;1.92;1.38;;;;;;;27.43;35.18;102002.84;5013655;28;96921;-27
2023/06/16 09:24:04;;;;;;;3.28;1.90;;;;;;;27.54;34.00;102005.25;5013001;28;101036;-27
2023/06/16 09:26:38;;;;;;;4.93;1.67;;;;;;;27.78;34.51;101997.88;5013175;28;101503;-32
2023/06/16 09:29:30;;;;;;;2.10;1.50;;;;;;;27.85;31.59;101997.00;5012831;28;96645;-27
2023/06/16 09:32:08;;;;;;;3.22;1.75;;;;;;;27.88;31.04;101979.94;5013295;28;96734;-28
2023/06/16 09:34:35;;;;;;;4.07;1.52;;;;;;;28.09;33.65;101990.44;5012444;28;100995;-27
2023/06/16 09:37:03;;;;;;;4.13;1.80;;;;;;;28.22;33.55;101989.88;5012897;28;100759;-26
2023/06/16 09:39:29;;;;;;;3.47;1.80;;;;;;;28.21;33.69;101985.34;5013407;28;96667;-27
2023/06/16 09:41:55;;;;;;;4.35;1.52;;;;;;;28.23;32.46;101986.03;5015178;28;96893;-27
2023/06/16 09:44:25;;;;;;;3.10;1.90;;;;;;;28.14;32.52;101974.03;5014499;28;99695;-27
2023/06/16 09:46:51;;;;;;;3.58;1.52;;;;;;;27.99;33.42;101989.81;5013189;28;101356;-26
2023/06/16 09:49:21;;;;;;;3.05;1.60;;;;;;;28.20;32.89;101989.19;5013045;28;96825;-26
2023/06/16 09:51:54;;;;;;;2.88;1.73;;;;;;;28.29;32.52;101982.50;5014619;28;96712;-27
2023/06/16 09:54:21;;;;;;;2.60;1.38;;;;;;;28.50;32.41;101992.16;5013107;28;100906;-26
2023/06/16 09:56:47;;;;;;;2.72;1.42;;;;;;;28.53;31.88;101983.41;5013045;28;101281;-27
2023/06/16 09:59:13;;;;;;;3.00;1.63;;;;;;;28.67;31.15;101982.59;5013187;28;96675;-27
2023/06/16 10:01:40;;;;;;;2.17;1.63;;;;;;;28.66;31.35;101978.09;5014925;28;96759;-27
2023/06/16 10:04:09;;;;;;;2.08;1.40;;;;;;;28.61;28.97;101974.13;5012650;28;101131;-27
2023/06/16 10:06:40;;;;;;;2.90;1.30;;;;;;;28.64;28.13;101985.75;5013158;28;100817;-27
2023/06/16 10:09:07;;;;;;;2.08;1.48;;;;;;;28.57;29.15;101982.84;5014783;28;96576;-27
2023/06/16 10:11:34;;;;;;;1.98;1.45;;;;;;;28.58;29.56;101972.59;5012992;28;96799;-27
2023/06/16 10:14:02;;;;;;;2.22;1.55;;;;;;;28.65;29.92;101978.25;5012370;28;101152;-28
2023/06/16 10:16:29;;;;;;;2.45;1.67;;;;;;;28.62;27.76;101973.94;5012549;28;100846;-27
2023/06/16 10:19:00;;;;;;;3.97;1.70;;;;;;;28.69;28.43;101971.28;5012739;28;96860;-27
2023/06/16 10:21:26;;;;;;;2.42;1.63;;;;;;;28.90;29.35;101968.63;5013307;28;96728;-28
2023/06/16 10:23:52;;;;;;;2.67;1.73;;;;;;;29.11;29.04;101970.75;5012674;28;101200;-28
2023/06/16 10:26:18;;;;;;;3.72;1.50;;;;;;;29.08;27.96;101965.56;5013901;28;98761;-27
2023/06/16 10:28:44;;;;;;;2.92;1.48;;;;;;;29.11;28.59;101967.09;4996238;28;96597;-27
2023/06/16 10:31:11;;;;;;;4.75;1.75;;;;;;;28.96;27.79;101961.44;5012978;28;96916;-27
2023/06/16 10:33:58;;;;;;;2.20;1.63;;;;;;;29.11;26.55;101961.50;5012214;28;101488;-28
2023/06/16 10:36:28;;;;;;;2.25;1.40;;;;;;;29.21;28.36;101962.09;5012594;28;100983;-27
2023/06/16 10:38:59;;;;;;;2.60;1.33;;;;;;;29.33;27.37;101971.72;5012383;28;96621;-26
2023/06/16 10:41:31;;;;;;;;;;;;;;;29.45;26.68;101963.75;5017658;28;96764;-27
2023/06/16 10:44:16;;;;;;;;;;;;;;;29.48;27.23;101965.28;5016345;28;100965;-27
2023/06/16 10:46:42;;;;;;;3.13;1.50;;;;;;;29.60;27.75;101950.66;5017179;28;99506;-27
2023/06/16 10:49:09;;;;;;;4.90;1.60;;;;;;;29.79;27.95;101962.31;5017669;28;96617;-27
2023/06/16 10:51:56;;;;;;;2.80;1.75;;;;;;;29.74;24.99;101948.06;5017494;28;96744;-27
2023/06/16 10:54:37;;;;;;;2.67;1.38;;;;;;;29.41;27.21;101948.44;5015643;28;100768;-27
2023/06/16 10:57:03;;;;;;;2.95;1.73;;;;;;;29.29;27.36;101958.34;5016016;28;100814;-26
2023/06/16 10:59:29;;;;;;;2.72;1.58;;;;;;;29.30;27.27;101947.00;5017297;28;96766;-27
2023/06/16 11:01:57;;;;;;;2.80;1.58;;;;;;;29.40;27.47;101943.91;5016001;28;96926;-27
2023/06/16 11:04:22;;;;;;;2.83;1.65;;;;;;;29.29;25.77;101950.81;5015223;28;100914;-26
2023/06/16 11:07:07;;;;;;;4.90;1.55;;;;;;;29.38;26.93;101944.09;5016900;28;97309;-26
2023/06/16 11:09:33;;;;;;;2.38;1.58;;;;;;;29.54;27.21;101942.19;5015903;28;96834;-27
2023/06/16 11:12:02;;;;;;;1.85;1.40;;;;;;;29.78;26.12;101946.63;5017370;28;96769;-27
2023/06/16 11:14:28;;;;;;;2.60;1.33;;;;;;;29.83;27.15;101935.72;5015386;28;100872;-27
2023/06/16 11:16:55;;;;;;;2.78;1.63;;;;;;;29.86;27.02;101938.13;5006224;28;98407;-28
2023/06/16 11:19:20;;;;;;;4.45;1.85;;;;;;;29.91;27.19;101932.81;5005158;28;97729;-27
2023/06/16 11:21:46;;;;;;;2.22;1.70;;;;;;;30.15;26.99;101934.41;5017358;28;96798;-27
2023/06/16 11:24:12;;;;;;;4.25;1.80;;;;;;;30.32;27.44;101940.66;5015268;28;101007;-27